sensor_id;sensor_type;location;lat;lon;timestamp;P1;durP1;ratioP1;P2;durP2;ratioP2
23496;SDS011;11925;48.122;11.560;2022-10-31T00:00:51;12.52;;;5.75;;
23496;SDS011;11925;48.122;11.560;2022-10-31T00:03:20;10.90;;;5.43;;
23496;SDS011;11925;48.122;11.560;2022-10-31T00:05:49;13.23;;;5.88;;
23496;SDS011;11925;48.122;11.560;2022-10-31T00:08:18;16.90;;;5.63;;
23496;SDS011;11925;48.122;11.560;2022-10-31T00:10:46;13.75;;;5.55;;
23496;SDS011;11925;48.122;11.560;2022-10-31T00:13:15;12.55;;;5.88;;
23496;SDS011;11925;48.122;11.560;2022-10-31T00:15:45;15.25;;;6.63;;
23496;SDS011;11925;48.122;11.560;2022-10-31T00:18:13;12.57;;;5.60;;
23496;SDS011;11925;48.122;11.560;2022-10-31T00:20:41;12.80;;;6.07;;
23496;SDS011;11925;48.122;11.560;2022-10-31T00:23:10;12.88;;;5.90;;
23496;SDS011;11925;48.122;11.560;2022-10-31T00:25:39;12.73;;;5.78;;
23496;SDS011;11925;48.122;11.560;2022-10-31T00:28:08;13.48;;;6.57;;
23496;SDS011;11925;48.122;11.560;2022-10-31T00:30:38;12.07;;;5.63;;
23496;SDS011;11925;48.122;11.560;2022-10-31T00:33:08;12.13;;;5.72;;
23496;SDS011;11925;48.122;11.560;2022-10-31T00:35:36;10.32;;;5.38;;
23496;SDS011;11925;48.122;11.560;2022-10-31T00:38:05;12.38;;;5.32;;
23496;SDS011;11925;48.122;11.560;2022-10-31T00:40:33;11.98;;;4.97;;
23496;SDS011;11925;48.122;11.560;2022-10-31T00:43:01;13.30;;;5.45;;
23496;SDS011;11925;48.122;11.560;2022-10-31T00:45:30;12.40;;;5.20;;
23496;SDS011;11925;48.122;11.560;2022-10-31T00:48:00;11.70;;;5.90;;
23496;SDS011;11925;48.122;11.560;2022-10-31T00:50:30;11.57;;;5.95;;
23496;SDS011;11925;48.122;11.560;2022-10-31T00:52:59;11.15;;;5.18;;
23496;SDS011;11925;48.122;11.560;2022-10-31T00:55:27;9.88;;;4.70;;
23496;SDS011;11925;48.122;11.560;2022-10-31T00:57:56;12.98;;;5.10;;
23496;SDS011;11925;48.122;11.560;2022-10-31T01:00:25;15.93;;;5.60;;
23496;SDS011;11925;48.122;11.560;2022-10-31T01:02:55;14.80;;;6.47;;
23496;SDS011;11925;48.122;11.560;2022-10-31T01:05:24;11.85;;;6.78;;
23496;SDS011;11925;48.122;11.560;2022-10-31T01:07:54;11.27;;;5.78;;
23496;SDS011;11925;48.122;11.560;2022-10-31T01:10:25;10.60;;;5.38;;
23496;SDS011;11925;48.122;11.560;2022-10-31T01:12:53;11.35;;;5.93;;
23496;SDS011;11925;48.122;11.560;2022-10-31T01:15:22;15.10;;;7.03;;
23496;SDS011;11925;48.122;11.560;2022-10-31T01:17:50;17.05;;;7.00;;
23496;SDS011;11925;48.122;11.560;2022-10-31T01:20:19;13.77;;;6.82;;
23496;SDS011;11925;48.122;11.560;2022-10-31T01:22:47;12.40;;;6.53;;
23496;SDS011;11925;48.122;11.560;2022-10-31T01:25:17;12.50;;;6.60;;
23496;SDS011;11925;48.122;11.560;2022-10-31T01:27:47;9.00;;;5.72;;
23496;SDS011;11925;48.122;11.560;2022-10-31T01:30:15;12.73;;;6.00;;
23496;SDS011;11925;48.122;11.560;2022-10-31T01:32:43;11.75;;;5.60;;
23496;SDS011;11925;48.122;11.560;2022-10-31T01:35:11;12.82;;;5.70;;
23496;SDS011;11925;48.122;11.560;2022-10-31T01:37:40;11.93;;;5.75;;
23496;SDS011;11925;48.122;11.560;2022-10-31T01:40:09;10.13;;;5.05;;
23496;SDS011;11925;48.122;11.560;2022-10-31T01:42:39;9.43;;;4.80;;
23496;SDS011;11925;48.122;11.560;2022-10-31T01:45:09;10.32;;;5.82;;
23496;SDS011;11925;48.122;11.560;2022-10-31T01:47:40;10.63;;;4.87;;
23496;SDS011;11925;48.122;11.560;2022-10-31T01:50:17;12.43;;;5.20;;
23496;SDS011;11925;48.122;11.560;2022-10-31T01:52:54;10.30;;;4.60;;
23496;SDS011;11925;48.122;11.560;2022-10-31T01:55:23;10.68;;;5.28;;
23496;SDS011;11925;48.122;11.560;2022-10-31T01:57:58;12.20;;;4.63;;
23496;SDS011;11925;48.122;11.560;2022-10-31T02:00:32;7.55;;;4.55;;
23496;SDS011;11925;48.122;11.560;2022-10-31T02:03:00;9.20;;;4.88;;
23496;SDS011;11925;48.122;11.560;2022-10-31T02:05:30;11.57;;;5.25;;
23496;SDS011;11925;48.122;11.560;2022-10-31T02:08:01;10.48;;;5.47;;
23496;SDS011;11925;48.122;11.560;2022-10-31T02:10:34;9.38;;;4.07;;
23496;SDS011;11925;48.122;11.560;2022-10-31T02:13:08;9.60;;;5.05;;
23496;SDS011;11925;48.122;11.560;2022-10-31T02:15:43;9.95;;;4.53;;
23496;SDS011;11925;48.122;11.560;2022-10-31T02:18:12;9.43;;;4.75;;
23496;SDS011;11925;48.122;11.560;2022-10-31T02:20:46;11.65;;;4.80;;
23496;SDS011;11925;48.122;11.560;2022-10-31T02:23:21;11.23;;;4.85;;
23496;SDS011;11925;48.122;11.560;2022-10-31T02:26:22;8.73;;;4.72;;
23496;SDS011;11925;48.122;11.560;2022-10-31T02:32:07;9.88;;;4.40;;
23496;SDS011;11925;48.122;11.560;2022-10-31T02:34:42;9.05;;;4.55;;
23496;SDS011;11925;48.122;11.560;2022-10-31T02:37:17;10.82;;;4.88;;
23496;SDS011;11925;48.122;11.560;2022-10-31T02:39:53;7.25;;;4.97;;
23496;SDS011;11925;48.122;11.560;2022-10-31T02:42:43;13.80;;;5.20;;
23496;SDS011;11925;48.122;11.560;2022-10-31T02:45:20;11.93;;;4.95;;
23496;SDS011;11925;48.122;11.560;2022-10-31T02:47:56;9.82;;;4.90;;
23496;SDS011;11925;48.122;11.560;2022-10-31T02:50:29;8.95;;;4.65;;
23496;SDS011;11925;48.122;11.560;2022-10-31T02:53:01;12.30;;;5.20;;
23496;SDS011;11925;48.122;11.560;2022-10-31T02:55:44;10.80;;;5.00;;
23496;SDS011;11925;48.122;11.560;2022-10-31T02:58:23;11.55;;;4.82;;
23496;SDS011;11925;48.122;11.560;2022-10-31T03:03:55;9.68;;;4.57;;
23496;SDS011;11925;48.122;11.560;2022-10-31T03:06:33;11.77;;;4.85;;
23496;SDS011;11925;48.122;11.560;2022-10-31T03:09:15;11.52;;;4.90;;
23496;SDS011;11925;48.122;11.560;2022-10-31T03:11:56;11.30;;;4.35;;
23496;SDS011;11925;48.122;11.560;2022-10-31T03:14:31;9.80;;;4.72;;
23496;SDS011;11925;48.122;11.560;2022-10-31T03:17:07;10.32;;;4.90;;
23496;SDS011;11925;48.122;11.560;2022-10-31T03:19:40;11.95;;;4.35;;
23496;SDS011;11925;48.122;11.560;2022-10-31T03:22:12;7.85;;;4.07;;
23496;SDS011;11925;48.122;11.560;2022-10-31T03:24:45;10.80;;;5.00;;
23496;SDS011;11925;48.122;11.560;2022-10-31T03:27:18;10.65;;;5.13;;
23496;SDS011;11925;48.122;11.560;2022-10-31T03:29:52;7.15;;;3.83;;
23496;SDS011;11925;48.122;11.560;2022-10-31T03:34:55;8.20;;;4.50;;
23496;SDS011;11925;48.122;11.560;2022-10-31T03:37:27;10.35;;;4.75;;
23496;SDS011;11925;48.122;11.560;2022-10-31T03:39:58;7.65;;;4.35;;
23496;SDS011;11925;48.122;11.560;2022-10-31T03:42:28;9.20;;;4.45;;
23496;SDS011;11925;48.122;11.560;2022-10-31T03:44:59;10.57;;;4.43;;
23496;SDS011;11925;48.122;11.560;2022-10-31T03:47:31;7.32;;;3.97;;
23496;SDS011;11925;48.122;11.560;2022-10-31T03:50:01;13.05;;;5.03;;
23496;SDS011;11925;48.122;11.560;2022-10-31T03:52:31;8.27;;;4.57;;
23496;SDS011;11925;48.122;11.560;2022-10-31T03:55:09;8.68;;;4.40;;
23496;SDS011;11925;48.122;11.560;2022-10-31T03:57:45;9.93;;;5.30;;
23496;SDS011;11925;48.122;11.560;2022-10-31T04:00:22;9.55;;;5.00;;
23496;SDS011;11925;48.122;11.560;2022-10-31T04:02:53;11.60;;;4.07;;
23496;SDS011;11925;48.122;11.560;2022-10-31T04:05:31;10.35;;;4.25;;
23496;SDS011;11925;48.122;11.560;2022-10-31T04:08:02;8.48;;;4.38;;
23496;SDS011;11925;48.122;11.560;2022-10-31T04:10:34;8.30;;;4.38;;
23496;SDS011;11925;48.122;11.560;2022-10-31T04:13:06;12.23;;;4.20;;
23496;SDS011;11925;48.122;11.560;2022-10-31T04:15:46;8.70;;;4.07;;
23496;SDS011;11925;48.122;11.560;2022-10-31T04:18:17;8.70;;;3.95;;
23496;SDS011;11925;48.122;11.560;2022-10-31T04:20:48;9.35;;;4.50;;
23496;SDS011;11925;48.122;11.560;2022-10-31T04:23:18;10.02;;;4.53;;
23496;SDS011;11925;48.122;11.560;2022-10-31T04:25:49;9.50;;;4.07;;
23496;SDS011;11925;48.122;11.560;2022-10-31T04:28:17;9.50;;;4.72;;
23496;SDS011;11925;48.122;11.560;2022-10-31T04:30:46;9.30;;;4.45;;
23496;SDS011;11925;48.122;11.560;2022-10-31T04:33:15;9.55;;;4.50;;
23496;SDS011;11925;48.122;11.560;2022-10-31T04:35:45;13.32;;;4.90;;
23496;SDS011;11925;48.122;11.560;2022-10-31T04:38:16;8.85;;;4.20;;
23496;SDS011;11925;48.122;11.560;2022-10-31T04:40:46;8.18;;;3.83;;
23496;SDS011;11925;48.122;11.560;2022-10-31T04:43:33;10.05;;;4.78;;
23496;SDS011;11925;48.122;11.560;2022-10-31T04:46:01;9.32;;;4.10;;
23496;SDS011;11925;48.122;11.560;2022-10-31T04:48:30;11.13;;;4.68;;
23496;SDS011;11925;48.122;11.560;2022-10-31T04:51:02;9.93;;;4.15;;
23496;SDS011;11925;48.122;11.560;2022-10-31T04:53:32;8.20;;;3.97;;
23496;SDS011;11925;48.122;11.560;2022-10-31T04:56:19;10.10;;;4.18;;
23496;SDS011;11925;48.122;11.560;2022-10-31T04:58:53;9.70;;;4.50;;
23496;SDS011;11925;48.122;11.560;2022-10-31T05:01:23;8.57;;;4.68;;
23496;SDS011;11925;48.122;11.560;2022-10-31T05:03:53;8.65;;;3.92;;
23496;SDS011;11925;48.122;11.560;2022-10-31T05:06:22;8.32;;;4.13;;
23496;SDS011;11925;48.122;11.560;2022-10-31T05:08:52;7.82;;;4.07;;
23496;SDS011;11925;48.122;11.560;2022-10-31T05:11:20;10.90;;;4.07;;
23496;SDS011;11925;48.122;11.560;2022-10-31T05:13:49;11.52;;;4.20;;
23496;SDS011;11925;48.122;11.560;2022-10-31T05:16:35;10.57;;;4.22;;
23496;SDS011;11925;48.122;11.560;2022-10-31T05:19:42;8.27;;;4.35;;
23496;SDS011;11925;48.122;11.560;2022-10-31T05:22:30;8.32;;;4.30;;
23496;SDS011;11925;48.122;11.560;2022-10-31T05:25:01;11.48;;;4.18;;
23496;SDS011;11925;48.122;11.560;2022-10-31T05:27:29;8.32;;;3.78;;
23496;SDS011;11925;48.122;11.560;2022-10-31T05:29:58;7.75;;;3.78;;
23496;SDS011;11925;48.122;11.560;2022-10-31T05:32:36;6.70;;;3.47;;
23496;SDS011;11925;48.122;11.560;2022-10-31T05:35:37;7.70;;;4.07;;
23496;SDS011;11925;48.122;11.560;2022-10-31T05:38:31;8.20;;;4.50;;
23496;SDS011;11925;48.122;11.560;2022-10-31T05:41:10;5.45;;;3.33;;
23496;SDS011;11925;48.122;11.560;2022-10-31T05:43:43;7.95;;;3.78;;
23496;SDS011;11925;48.122;11.560;2022-10-31T05:46:13;7.60;;;4.05;;
23496;SDS011;11925;48.122;11.560;2022-10-31T05:49:00;5.72;;;3.75;;
23496;SDS011;11925;48.122;11.560;2022-10-31T05:51:58;9.43;;;4.22;;
23496;SDS011;11925;48.122;11.560;2022-10-31T05:54:36;10.35;;;4.43;;
23496;SDS011;11925;48.122;11.560;2022-10-31T05:57:05;10.18;;;4.13;;
23496;SDS011;11925;48.122;11.560;2022-10-31T05:59:34;9.63;;;3.50;;
23496;SDS011;11925;48.122;11.560;2022-10-31T06:02:02;8.82;;;3.78;;
23496;SDS011;11925;48.122;11.560;2022-10-31T06:04:49;10.02;;;4.38;;
23496;SDS011;11925;48.122;11.560;2022-10-31T06:07:18;8.82;;;3.60;;
23496;SDS011;11925;48.122;11.560;2022-10-31T06:09:46;11.75;;;4.38;;
23496;SDS011;11925;48.122;11.560;2022-10-31T06:12:16;10.65;;;4.07;;
23496;SDS011;11925;48.122;11.560;2022-10-31T06:15:08;7.72;;;3.78;;
23496;SDS011;11925;48.122;11.560;2022-10-31T06:17:36;9.52;;;3.95;;
23496;SDS011;11925;48.122;11.560;2022-10-31T06:20:24;10.07;;;3.90;;
23496;SDS011;11925;48.122;11.560;2022-10-31T06:23:00;10.32;;;4.03;;
23496;SDS011;11925;48.122;11.560;2022-10-31T06:25:31;8.43;;;3.63;;
23496;SDS011;11925;48.122;11.560;2022-10-31T06:28:04;10.00;;;4.18;;
23496;SDS011;11925;48.122;11.560;2022-10-31T06:30:43;9.20;;;4.05;;
23496;SDS011;11925;48.122;11.560;2022-10-31T06:33:11;10.25;;;3.45;;
23496;SDS011;11925;48.122;11.560;2022-10-31T06:35:46;8.23;;;3.67;;
23496;SDS011;11925;48.122;11.560;2022-10-31T06:38:17;9.23;;;3.83;;
23496;SDS011;11925;48.122;11.560;2022-10-31T06:40:45;9.82;;;3.47;;
23496;SDS011;11925;48.122;11.560;2022-10-31T06:43:26;5.68;;;3.53;;
23496;SDS011;11925;48.122;11.560;2022-10-31T06:46:11;9.65;;;3.67;;
23496;SDS011;11925;48.122;11.560;2022-10-31T06:48:47;8.00;;;3.70;;
23496;SDS011;11925;48.122;11.560;2022-10-31T06:51:19;8.10;;;3.53;;
23496;SDS011;11925;48.122;11.560;2022-10-31T06:53:49;9.95;;;3.67;;
23496;SDS011;11925;48.122;11.560;2022-10-31T06:56:18;7.78;;;3.70;;
23496;SDS011;11925;48.122;11.560;2022-10-31T06:58:51;7.93;;;3.78;;
23496;SDS011;11925;48.122;11.560;2022-10-31T07:01:35;9.90;;;4.50;;
23496;SDS011;11925;48.122;11.560;2022-10-31T07:04:04;9.10;;;5.93;;
23496;SDS011;11925;48.122;11.560;2022-10-31T07:06:34;11.43;;;4.75;;
23496;SDS011;11925;48.122;11.560;2022-10-31T07:09:02;6.97;;;3.80;;
23496;SDS011;11925;48.122;11.560;2022-10-31T07:11:31;9.38;;;4.20;;
23496;SDS011;11925;48.122;11.560;2022-10-31T07:14:01;12.52;;;3.85;;
23496;SDS011;11925;48.122;11.560;2022-10-31T07:16:30;8.15;;;3.55;;
23496;SDS011;11925;48.122;11.560;2022-10-31T07:18:58;10.20;;;3.75;;
23496;SDS011;11925;48.122;11.560;2022-10-31T07:21:27;9.77;;;3.50;;
23496;SDS011;11925;48.122;11.560;2022-10-31T07:23:55;7.03;;;3.30;;
23496;SDS011;11925;48.122;11.560;2022-10-31T07:26:42;9.23;;;3.75;;
23496;SDS011;11925;48.122;11.560;2022-10-31T07:29:14;8.48;;;3.33;;
23496;SDS011;11925;48.122;11.560;2022-10-31T07:31:44;9.20;;;3.80;;
23496;SDS011;11925;48.122;11.560;2022-10-31T07:34:19;13.30;;;3.60;;
23496;SDS011;11925;48.122;11.560;2022-10-31T07:37:00;10.48;;;3.53;;
23496;SDS011;11925;48.122;11.560;2022-10-31T07:39:29;6.55;;;2.90;;
23496;SDS011;11925;48.122;11.560;2022-10-31T07:41:58;8.77;;;3.42;;
23496;SDS011;11925;48.122;11.560;2022-10-31T07:44:28;8.73;;;3.58;;
23496;SDS011;11925;48.122;11.560;2022-10-31T07:47:15;6.38;;;3.25;;
23496;SDS011;11925;48.122;11.560;2022-10-31T07:50:14;12.80;;;4.32;;
23496;SDS011;11925;48.122;11.560;2022-10-31T07:53:13;8.52;;;3.97;;
23496;SDS011;11925;48.122;11.560;2022-10-31T07:56:03;10.63;;;3.90;;
23496;SDS011;11925;48.122;11.560;2022-10-31T07:58:32;12.10;;;3.97;;
23496;SDS011;11925;48.122;11.560;2022-10-31T08:01:02;10.77;;;3.50;;
23496;SDS011;11925;48.122;11.560;2022-10-31T08:03:39;7.13;;;3.22;;
23496;SDS011;11925;48.122;11.560;2022-10-31T08:06:33;10.32;;;4.10;;
23496;SDS011;11925;48.122;11.560;2022-10-31T08:09:11;7.45;;;3.30;;
23496;SDS011;11925;48.122;11.560;2022-10-31T08:11:42;7.25;;;3.55;;
23496;SDS011;11925;48.122;11.560;2022-10-31T08:14:10;11.25;;;3.38;;
23496;SDS011;11925;48.122;11.560;2022-10-31T08:16:40;11.25;;;3.70;;
23496;SDS011;11925;48.122;11.560;2022-10-31T08:19:10;7.95;;;3.80;;
23496;SDS011;11925;48.122;11.560;2022-10-31T08:21:39;8.63;;;3.42;;
23496;SDS011;11925;48.122;11.560;2022-10-31T08:24:08;7.68;;;3.33;;
23496;SDS011;11925;48.122;11.560;2022-10-31T08:26:37;9.63;;;3.60;;
23496;SDS011;11925;48.122;11.560;2022-10-31T08:29:10;8.32;;;3.60;;
23496;SDS011;11925;48.122;11.560;2022-10-31T08:31:41;6.75;;;3.63;;
23496;SDS011;11925;48.122;11.560;2022-10-31T08:34:28;7.10;;;3.22;;
23496;SDS011;11925;48.122;11.560;2022-10-31T08:37:15;7.18;;;3.80;;
23496;SDS011;11925;48.122;11.560;2022-10-31T08:39:51;7.15;;;3.28;;
23496;SDS011;11925;48.122;11.560;2022-10-31T08:42:20;7.60;;;3.78;;
23496;SDS011;11925;48.122;11.560;2022-10-31T08:44:48;9.10;;;3.83;;
23496;SDS011;11925;48.122;11.560;2022-10-31T08:47:21;10.30;;;3.88;;
23496;SDS011;11925;48.122;11.560;2022-10-31T08:49:50;9.25;;;3.30;;
23496;SDS011;11925;48.122;11.560;2022-10-31T08:52:21;8.02;;;3.47;;
23496;SDS011;11925;48.122;11.560;2022-10-31T08:55:11;10.77;;;4.03;;
23496;SDS011;11925;48.122;11.560;2022-10-31T08:57:48;7.43;;;3.75;;
23496;SDS011;11925;48.122;11.560;2022-10-31T09:00:23;8.98;;;4.00;;
23496;SDS011;11925;48.122;11.560;2022-10-31T09:03:01;8.20;;;3.83;;
23496;SDS011;11925;48.122;11.560;2022-10-31T09:05:32;8.18;;;4.35;;
23496;SDS011;11925;48.122;11.560;2022-10-31T09:08:01;8.43;;;4.40;;
23496;SDS011;11925;48.122;11.560;2022-10-31T09:10:31;10.48;;;4.38;;
23496;SDS011;11925;48.122;11.560;2022-10-31T09:13:02;13.20;;;4.40;;
23496;SDS011;11925;48.122;11.560;2022-10-31T09:15:58;8.85;;;4.57;;
23496;SDS011;11925;48.122;11.560;2022-10-31T09:18:28;9.15;;;5.30;;
23496;SDS011;11925;48.122;11.560;2022-10-31T09:20:58;10.48;;;5.32;;
23496;SDS011;11925;48.122;11.560;2022-10-31T09:23:29;11.65;;;5.20;;
23496;SDS011;11925;48.122;11.560;2022-10-31T09:26:00;13.88;;;5.72;;
23496;SDS011;11925;48.122;11.560;2022-10-31T09:28:31;10.40;;;5.22;;
23496;SDS011;11925;48.122;11.560;2022-10-31T09:31:05;12.88;;;5.75;;
23496;SDS011;11925;48.122;11.560;2022-10-31T09:33:48;10.13;;;5.80;;
23496;SDS011;11925;48.122;11.560;2022-10-31T09:36:34;11.93;;;5.30;;
23496;SDS011;11925;48.122;11.560;2022-10-31T09:39:04;10.70;;;5.47;;
23496;SDS011;11925;48.122;11.560;2022-10-31T09:41:40;13.83;;;5.93;;
23496;SDS011;11925;48.122;11.560;2022-10-31T09:44:26;13.73;;;6.25;;
23496;SDS011;11925;48.122;11.560;2022-10-31T09:47:12;11.45;;;5.70;;
23496;SDS011;11925;48.122;11.560;2022-10-31T09:50:13;12.75;;;6.10;;
23496;SDS011;11925;48.122;11.560;2022-10-31T09:52:49;14.60;;;7.72;;
23496;SDS011;11925;48.122;11.560;2022-10-31T09:55:26;13.57;;;7.72;;
23496;SDS011;11925;48.122;11.560;2022-10-31T09:58:04;13.88;;;7.30;;
23496;SDS011;11925;48.122;11.560;2022-10-31T10:00:33;11.52;;;7.15;;
23496;SDS011;11925;48.122;11.560;2022-10-31T10:03:05;11.45;;;7.43;;
23496;SDS011;11925;48.122;11.560;2022-10-31T10:05:43;13.93;;;7.57;;
23496;SDS011;11925;48.122;11.560;2022-10-31T10:08:27;15.73;;;6.93;;
23496;SDS011;11925;48.122;11.560;2022-10-31T10:11:23;12.98;;;6.82;;
23496;SDS011;11925;48.122;11.560;2022-10-31T10:14:27;13.02;;;7.05;;
23496;SDS011;11925;48.122;11.560;2022-10-31T10:17:08;11.00;;;6.32;;
23496;SDS011;11925;48.122;11.560;2022-10-31T10:22:49;13.48;;;6.30;;
23496;SDS011;11925;48.122;11.560;2022-10-31T10:25:26;11.00;;;5.80;;
23496;SDS011;11925;48.122;11.560;2022-10-31T10:28:08;11.27;;;5.55;;
23496;SDS011;11925;48.122;11.560;2022-10-31T10:30:44;10.95;;;5.32;;
23496;SDS011;11925;48.122;11.560;2022-10-31T10:33:18;11.85;;;5.50;;
23496;SDS011;11925;48.122;11.560;2022-10-31T10:35:50;12.65;;;5.32;;
23496;SDS011;11925;48.122;11.560;2022-10-31T10:38:26;11.05;;;5.10;;
23496;SDS011;11925;48.122;11.560;2022-10-31T10:41:00;9.15;;;4.63;;
23496;SDS011;11925;48.122;11.560;2022-10-31T10:43:32;9.10;;;4.68;;
23496;SDS011;11925;48.122;11.560;2022-10-31T10:46:15;10.73;;;5.10;;
23496;SDS011;11925;48.122;11.560;2022-10-31T10:49:10;9.73;;;4.68;;
23496;SDS011;11925;48.122;11.560;2022-10-31T10:51:44;10.25;;;4.60;;
23496;SDS011;11925;48.122;11.560;2022-10-31T10:54:45;6.40;;;4.05;;
23496;SDS011;11925;48.122;11.560;2022-10-31T10:57:22;8.88;;;4.50;;
23496;SDS011;11925;48.122;11.560;2022-10-31T11:00:00;9.52;;;4.50;;
23496;SDS011;11925;48.122;11.560;2022-10-31T11:02:45;9.05;;;4.18;;
23496;SDS011;11925;48.122;11.560;2022-10-31T11:05:19;8.07;;;4.93;;
23496;SDS011;11925;48.122;11.560;2022-10-31T11:07:52;9.73;;;3.75;;
23496;SDS011;11925;48.122;11.560;2022-10-31T11:10:21;10.63;;;4.18;;
23496;SDS011;11925;48.122;11.560;2022-10-31T11:13:01;9.82;;;3.75;;
23496;SDS011;11925;48.122;11.560;2022-10-31T11:15:34;8.13;;;4.03;;
23496;SDS011;11925;48.122;11.560;2022-10-31T11:18:05;10.98;;;4.10;;
23496;SDS011;11925;48.122;11.560;2022-10-31T11:20:42;9.48;;;3.78;;
23496;SDS011;11925;48.122;11.560;2022-10-31T11:23:20;13.88;;;3.95;;
23496;SDS011;11925;48.122;11.560;2022-10-31T11:25:55;29.60;;;5.75;;
23496;SDS011;11925;48.122;11.560;2022-10-31T11:28:25;33.75;;;6.28;;
23496;SDS011;11925;48.122;11.560;2022-10-31T11:30:57;38.38;;;5.72;;
23496;SDS011;11925;48.122;11.560;2022-10-31T11:33:28;31.75;;;5.95;;
23496;SDS011;11925;48.122;11.560;2022-10-31T11:35:59;41.50;;;5.70;;
23496;SDS011;11925;48.122;11.560;2022-10-31T11:38:31;40.88;;;6.28;;
23496;SDS011;11925;48.122;11.560;2022-10-31T11:41:08;42.75;;;6.65;;
23496;SDS011;11925;48.122;11.560;2022-10-31T11:43:55;36.28;;;6.25;;
23496;SDS011;11925;48.122;11.560;2022-10-31T11:46:27;42.67;;;7.03;;
23496;SDS011;11925;48.122;11.560;2022-10-31T11:49:01;36.67;;;5.53;;
23496;SDS011;11925;48.122;11.560;2022-10-31T11:51:32;37.70;;;7.55;;
23496;SDS011;11925;48.122;11.560;2022-10-31T11:56:39;32.15;;;5.00;;
23496;SDS011;11925;48.122;11.560;2022-10-31T11:59:17;27.38;;;5.43;;
23496;SDS011;11925;48.122;11.560;2022-10-31T12:01:50;15.43;;;4.65;;
23496;SDS011;11925;48.122;11.560;2022-10-31T12:04:23;26.95;;;4.10;;
23496;SDS011;11925;48.122;11.560;2022-10-31T12:07:06;11.85;;;4.07;;
23496;SDS011;11925;48.122;11.560;2022-10-31T12:09:35;15.07;;;3.95;;
23496;SDS011;11925;48.122;11.560;2022-10-31T12:12:09;15.23;;;4.60;;
23496;SDS011;11925;48.122;11.560;2022-10-31T12:15:15;16.27;;;3.50;;
23496;SDS011;11925;48.122;11.560;2022-10-31T12:17:55;12.52;;;3.80;;
23496;SDS011;11925;48.122;11.560;2022-10-31T12:20:39;14.13;;;3.45;;
23496;SDS011;11925;48.122;11.560;2022-10-31T12:23:15;13.18;;;3.33;;
23496;SDS011;11925;48.122;11.560;2022-10-31T12:25:50;13.18;;;3.20;;
23496;SDS011;11925;48.122;11.560;2022-10-31T12:28:33;10.70;;;3.40;;
23496;SDS011;11925;48.122;11.560;2022-10-31T12:31:17;9.35;;;3.33;;
23496;SDS011;11925;48.122;11.560;2022-10-31T12:33:58;10.40;;;3.05;;
23496;SDS011;11925;48.122;11.560;2022-10-31T12:36:39;9.68;;;3.55;;
23496;SDS011;11925;48.122;11.560;2022-10-31T12:39:17;8.95;;;2.78;;
23496;SDS011;11925;48.122;11.560;2022-10-31T12:41:52;9.05;;;3.10;;
23496;SDS011;11925;48.122;11.560;2022-10-31T12:44:33;9.55;;;3.22;;
23496;SDS011;11925;48.122;11.560;2022-10-31T12:47:28;14.43;;;3.30;;
23496;SDS011;11925;48.122;11.560;2022-10-31T12:50:28;11.20;;;4.45;;
23496;SDS011;11925;48.122;11.560;2022-10-31T12:53:07;6.38;;;3.20;;
23496;SDS011;11925;48.122;11.560;2022-10-31T12:58:20;9.43;;;3.10;;
23496;SDS011;11925;48.122;11.560;2022-10-31T13:00:56;11.80;;;3.72;;
23496;SDS011;11925;48.122;11.560;2022-10-31T13:03:32;11.13;;;3.60;;
23496;SDS011;11925;48.122;11.560;2022-10-31T13:06:07;6.50;;;3.13;;
23496;SDS011;11925;48.122;11.560;2022-10-31T13:08:41;7.53;;;3.47;;
23496;SDS011;11925;48.122;11.560;2022-10-31T13:11:14;6.93;;;3.85;;
23496;SDS011;11925;48.122;11.560;2022-10-31T13:16:18;9.77;;;3.30;;
23496;SDS011;11925;48.122;11.560;2022-10-31T13:18:51;7.47;;;3.72;;
23496;SDS011;11925;48.122;11.560;2022-10-31T13:21:24;9.02;;;3.33;;
23496;SDS011;11925;48.122;11.560;2022-10-31T13:23:54;9.70;;;3.13;;
23496;SDS011;11925;48.122;11.560;2022-10-31T13:29:03;7.93;;;3.00;;
23496;SDS011;11925;48.122;11.560;2022-10-31T13:31:40;8.85;;;3.55;;
23496;SDS011;11925;48.122;11.560;2022-10-31T13:34:11;8.63;;;3.65;;
23496;SDS011;11925;48.122;11.560;2022-10-31T13:36:52;9.15;;;3.53;;
23496;SDS011;11925;48.122;11.560;2022-10-31T13:39:29;6.82;;;3.03;;
23496;SDS011;11925;48.122;11.560;2022-10-31T13:42:10;8.15;;;3.45;;
23496;SDS011;11925;48.122;11.560;2022-10-31T13:44:43;8.52;;;3.67;;
23496;SDS011;11925;48.122;11.560;2022-10-31T13:47:21;7.35;;;3.53;;
23496;SDS011;11925;48.122;11.560;2022-10-31T13:50:02;9.75;;;3.45;;
23496;SDS011;11925;48.122;11.560;2022-10-31T13:52:33;8.52;;;3.80;;
23496;SDS011;11925;48.122;11.560;2022-10-31T13:55:01;9.57;;;4.70;;
23496;SDS011;11925;48.122;11.560;2022-10-31T13:57:31;10.38;;;3.50;;
23496;SDS011;11925;48.122;11.560;2022-10-31T14:00:05;9.13;;;3.75;;
23496;SDS011;11925;48.122;11.560;2022-10-31T14:02:50;9.15;;;4.03;;
23496;SDS011;11925;48.122;11.560;2022-10-31T14:05:22;9.43;;;3.88;;
23496;SDS011;11925;48.122;11.560;2022-10-31T14:07:53;5.68;;;3.33;;
23496;SDS011;11925;48.122;11.560;2022-10-31T14:10:25;10.23;;;4.15;;
23496;SDS011;11925;48.122;11.560;2022-10-31T14:13:02;11.13;;;4.18;;
23496;SDS011;11925;48.122;11.560;2022-10-31T14:15:33;10.48;;;4.15;;
23496;SDS011;11925;48.122;11.560;2022-10-31T14:18:05;9.88;;;3.78;;
23496;SDS011;11925;48.122;11.560;2022-10-31T14:20:36;7.50;;;3.88;;
23496;SDS011;11925;48.122;11.560;2022-10-31T14:23:25;10.13;;;4.05;;
23496;SDS011;11925;48.122;11.560;2022-10-31T14:26:07;8.82;;;3.97;;
23496;SDS011;11925;48.122;11.560;2022-10-31T14:28:49;9.82;;;3.47;;
23496;SDS011;11925;48.122;11.560;2022-10-31T14:31:29;6.68;;;3.88;;
23496;SDS011;11925;48.122;11.560;2022-10-31T14:34:05;10.27;;;3.50;;
23496;SDS011;11925;48.122;11.560;2022-10-31T14:36:50;12.23;;;4.28;;
23496;SDS011;11925;48.122;11.560;2022-10-31T14:39:41;8.15;;;3.90;;
23496;SDS011;11925;48.122;11.560;2022-10-31T14:42:26;11.50;;;4.07;;
23496;SDS011;11925;48.122;11.560;2022-10-31T14:47:45;8.32;;;3.72;;
23496;SDS011;11925;48.122;11.560;2022-10-31T14:50:39;9.00;;;3.58;;
23496;SDS011;11925;48.122;11.560;2022-10-31T14:53:12;8.63;;;4.47;;
23496;SDS011;11925;48.122;11.560;2022-10-31T14:55:47;8.35;;;3.53;;
23496;SDS011;11925;48.122;11.560;2022-10-31T14:58:18;17.00;;;3.78;;
23496;SDS011;11925;48.122;11.560;2022-10-31T15:00:51;7.00;;;3.40;;
23496;SDS011;11925;48.122;11.560;2022-10-31T15:03:23;11.13;;;3.80;;
23496;SDS011;11925;48.122;11.560;2022-10-31T15:05:58;9.70;;;3.47;;
23496;SDS011;11925;48.122;11.560;2022-10-31T15:08:31;10.27;;;4.40;;
23496;SDS011;11925;48.122;11.560;2022-10-31T15:11:02;8.60;;;4.30;;
23496;SDS011;11925;48.122;11.560;2022-10-31T15:13:41;8.43;;;3.63;;
23496;SDS011;11925;48.122;11.560;2022-10-31T15:16:11;9.00;;;4.38;;
23496;SDS011;11925;48.122;11.560;2022-10-31T15:18:49;9.57;;;3.97;;
23496;SDS011;11925;48.122;11.560;2022-10-31T15:21:25;8.68;;;4.22;;
23496;SDS011;11925;48.122;11.560;2022-10-31T15:23:55;10.32;;;4.20;;
23496;SDS011;11925;48.122;11.560;2022-10-31T15:26:27;9.90;;;4.17;;
23496;SDS011;11925;48.122;11.560;2022-10-31T15:28:59;8.38;;;3.83;;
23496;SDS011;11925;48.122;11.560;2022-10-31T15:31:28;10.38;;;3.47;;
23496;SDS011;11925;48.122;11.560;2022-10-31T15:33:59;11.10;;;4.22;;
23496;SDS011;11925;48.122;11.560;2022-10-31T15:36:32;10.27;;;4.50;;
23496;SDS011;11925;48.122;11.560;2022-10-31T15:39:04;10.68;;;4.35;;